King Salmon Airport (AKN)

 

Airport Diagram
Current Weather/Forecast (MVFR Conditions)
METAR PAKN 312154Z 33011KT 3SM -SN BKN046 OVC060 M17/M20 A2909 RMK AO2 SLP852 P0000 T11671200
TAF PAKN 311959Z 3120/0118 34011KT 3SM -SN OVC030 TEMPO 3120/3124 1SM -SN BR OVC018 FM010900 32009KT 4SM -SN BR OVC035

All Charts

Inbound Traffic (Arrivals)

No inbound traffic.


Outbound Traffic (Departures)

No outbound traffic.